Time;durP1;ratioP1;P1;durP2;ratioP2;P2;SDS_P1;SDS_P2;PMS_P1;PMS_P2;Temp;Humidity;BMP_temperature;BMP_pressure;BME280_temperature;BME280_humidity;BME280_pressure;Samples;Min_cycle;Max_cycle;Signal;HPM_P1;HPM_P2
2024/01/15 00:02:01;;;;;;;1.20;1.03;;;;;;;;;;20946205;28;20213;-76
2024/01/15 00:12:03;;;;;;;3.90;1.93;;;;;;;;;;20937494;28;20754;-76
2024/01/15 00:22:05;;;;;;;3.90;1.90;;;;;;;;;;20928516;28;20641;-76
2024/01/15 00:32:06;;;;;;;2.03;1.70;;;;;;;;;;20902465;28;20258;-76
2024/01/15 00:42:08;;;;;;;4.13;1.40;;;;;;;;;;20917642;28;20638;-76
2024/01/15 00:52:10;;;;;;;2.13;1.27;;;;;;;;;;20925020;28;20287;-75
2024/01/15 01:02:12;;;;;;;3.43;2.10;;;;;;;;;;20927652;28;20268;-76
2024/01/15 01:12:13;;;;;;;1.73;1.43;;;;;;;;;;20925311;28;20218;-76
2024/01/15 01:22:15;;;;;;;1.17;0.83;;;;;;;;;;20902240;28;20617;-76
2024/01/15 01:32:17;;;;;;;1.10;1.03;;;;;;;;;;20904680;28;20267;-75
2024/01/15 01:42:19;;;;;;;2.50;1.33;;;;;;;;;;20912222;28;20230;-76
2024/01/15 01:52:21;;;;;;;1.73;1.53;;;;;;;;;;20899033;28;20284;-75
2024/01/15 02:02:23;;;;;;;0.50;0.50;;;;;;;;;;20919976;28;20214;-75
2024/01/15 02:12:24;;;;;;;2.70;1.77;;;;;;;;;;20923576;28;20218;-76
2024/01/15 02:22:26;;;;;;;2.03;1.67;;;;;;;;;;20919193;22;20225;-84
2024/01/15 02:32:28;;;;;;;1.93;1.40;;;;;;;;;;20872454;28;20255;-82
2024/01/15 02:42:29;;;;;;;1.03;0.90;;;;;;;;;;20859213;28;20875;-82
2024/01/15 02:52:31;;;;;;;2.10;1.60;;;;;;;;;;20880827;28;20825;-84
2024/01/15 03:02:33;;;;;;;4.73;2.10;;;;;;;;;;20886615;28;20217;-85
2024/01/15 03:12:35;;;;;;;1.30;1.07;;;;;;;;;;20930181;28;20694;-84
2024/01/15 03:22:36;;;;;;;3.03;1.97;;;;;;;;;;20880162;28;20290;-85
2024/01/15 03:32:38;;;;;;;1.10;1.00;;;;;;;;;;20866829;28;20279;-83
2024/01/15 03:42:40;;;;;;;2.93;1.50;;;;;;;;;;20888732;28;20229;-83
2024/01/15 03:52:42;;;;;;;1.63;1.53;;;;;;;;;;20895004;28;20248;-84
2024/01/15 04:02:44;;;;;;;0.20;0.20;;;;;;;;;;20900389;28;20283;-87
2024/01/15 04:12:46;;;;;;;4.03;1.93;;;;;;;;;;20861967;28;20213;-86
2024/01/15 04:22:47;;;;;;;2.63;1.70;;;;;;;;;;20873493;28;20278;-83
2024/01/15 04:32:49;;;;;;;2.20;1.90;;;;;;;;;;20908440;28;20291;-83
2024/01/15 04:42:51;;;;;;;0.77;0.50;;;;;;;;;;20892654;28;20687;-83
2024/01/15 04:52:53;;;;;;;1.10;1.00;;;;;;;;;;20903191;28;20578;-83
2024/01/15 05:02:56;;;;;;;2.23;1.33;;;;;;;;;;20912890;28;20950;-84
2024/01/15 05:12:58;;;;;;;1.37;1.07;;;;;;;;;;20888854;28;20218;-85
2024/01/15 05:23:00;;;;;;;3.30;1.70;;;;;;;;;;20908735;28;20892;-85
2024/01/15 05:33:02;;;;;;;2.03;1.43;;;;;;;;;;20895651;28;20214;-84
2024/01/15 05:43:04;;;;;;;1.10;0.97;;;;;;;;;;20868462;28;20627;-85
2024/01/15 05:53:06;;;;;;;7.80;5.53;;;;;;;;;;20885952;28;20213;-83
2024/01/15 06:03:07;;;;;;;10.23;4.20;;;;;;;;;;20898244;28;20694;-84
2024/01/15 06:13:09;;;;;;;2.57;1.83;;;;;;;;;;20873671;28;20264;-83
2024/01/15 06:23:11;;;;;;;1.17;0.93;;;;;;;;;;20927774;28;20222;-85
2024/01/15 06:33:13;;;;;;;2.77;1.77;;;;;;;;;;20874932;28;20275;-84
2024/01/15 06:43:15;;;;;;;3.67;2.07;;;;;;;;;;20863357;28;20283;-81
2024/01/15 06:53:17;;;;;;;2.27;1.57;;;;;;;;;;20859677;28;20213;-84
2024/01/15 07:03:19;;;;;;;1.80;1.43;;;;;;;;;;20896545;28;20252;-83
2024/01/15 07:13:21;;;;;;;2.73;2.23;;;;;;;;;;20899841;28;20213;-83
2024/01/15 07:23:23;;;;;;;1.90;1.50;;;;;;;;;;20894128;28;20240;-82
2024/01/15 07:33:26;;;;;;;2.37;1.07;;;;;;;;;;20870287;28;20236;-84
2024/01/15 07:43:28;;;;;;;4.50;3.27;;;;;;;;;;20877031;28;20222;-84
2024/01/15 07:53:29;;;;;;;0.50;0.50;;;;;;;;;;20866375;28;20616;-82
2024/01/15 08:03:31;;;;;;;2.10;1.30;;;;;;;;;;20903498;28;20283;-82
2024/01/15 08:13:33;;;;;;;3.50;1.60;;;;;;;;;;20892945;28;20267;-83
2024/01/15 08:23:35;;;;;;;1.97;1.53;;;;;;;;;;20878078;28;20279;-84
2024/01/15 08:33:37;;;;;;;1.13;1.03;;;;;;;;;;20915667;28;20210;-84
2024/01/15 08:43:39;;;;;;;1.30;0.97;;;;;;;;;;20903499;28;20675;-83
2024/01/15 08:53:41;;;;;;;1.17;1.07;;;;;;;;;;20893915;28;20221;-84
2024/01/15 09:03:42;;;;;;;1.90;1.27;;;;;;;;;;20862964;28;20234;-83
2024/01/15 09:13:44;;;;;;;1.40;1.23;;;;;;;;;;20880611;28;20210;-82
2024/01/15 09:23:46;;;;;;;1.23;1.13;;;;;;;;;;20900731;28;20217;-83
2024/01/15 09:33:51;;;;;;;1.27;1.03;;;-0.70;99.90;;;;;;20866316;28;20630;-83
2024/01/15 09:43:53;;;;;;;2.27;1.43;;;;;;;;;;20944940;28;20270;-84
2024/01/15 09:53:55;;;;;;;1.27;1.00;;;;;;;;;;20872543;28;20218;-83
2024/01/15 10:03:58;;;;;;;1.47;1.03;;;;;;;;;;20869687;28;20633;-80
2024/01/15 10:14:00;;;;;;;0.73;0.50;;;;;;;;;;20901731;28;20283;-83
2024/01/15 10:24:02;;;;;;;0.77;0.67;;;;;;;;;;20894484;28;20233;-83
2024/01/15 10:34:15;;;;;;;1.23;1.10;;;;;;;;;;20859237;28;20283;-81
2024/01/15 10:44:20;;;;;;;1.47;1.23;;;;;;;;;;20921447;28;20762;-82
2024/01/15 10:54:22;;;;;;;1.10;0.97;;;-0.80;99.90;;;;;;20860120;28;20222;-83
2024/01/15 11:04:26;;;;;;;0.97;0.80;;;;;;;;;;20860303;28;20275;-83
2024/01/15 11:14:35;;;;;;;1.03;0.83;;;;;;;;;;20903581;28;20214;-81
2024/01/15 11:24:40;;;;;;;1.23;0.90;;;;;;;;;;20893919;28;20772;-81
2024/01/15 11:35:01;;;;;;;2.27;1.47;;;;;;;;;;20920525;28;20273;-81
2024/01/15 11:45:05;;;;;;;2.30;1.20;;;;;;;;;;20876661;28;20279;-83
2024/01/15 11:55:28;;;;;;;2.40;1.50;;;-0.30;99.90;;;;;;20905106;28;20323;-83
2024/01/15 12:05:30;;;;;;;1.73;1.33;;;;;;;;;;20902137;28;20214;-82
2024/01/15 12:15:32;;;;;;;2.10;1.30;;;;;;;;;;20866085;28;20272;-80
2024/01/15 12:25:35;;;;;;;5.67;2.97;;;;;;;;;;20888465;28;20266;-83
2024/01/15 12:35:36;;;;;;;5.90;1.30;;;;;;;;;;20893139;28;20225;-82
2024/01/15 12:45:38;;;;;;;1.50;1.30;;;;;;;;;;20898020;28;20267;-81
2024/01/15 12:55:40;;;;;;;1.53;1.20;;;;;;;;;;20896615;28;20225;-82
2024/01/15 13:05:42;;;;;;;1.20;1.10;;;;;;;;;;20898187;28;20247;-82
2024/01/15 13:15:44;;;;;;;1.93;1.43;;;;;;;;;;20887132;28;20274;-82
2024/01/15 13:25:45;;;;;;;1.20;0.93;;;;;;;;;;20882184;28;20221;-83
2024/01/15 13:35:49;;;;;;;1.50;1.00;;;;;;;;;;20894659;28;20230;-82
2024/01/15 13:45:52;;;;;;;1.53;1.10;;;;;;;;;;20877235;28;20271;-82
2024/01/15 13:55:53;;;;;;;1.20;1.00;;;;;;;;;;20906264;28;20275;-82
2024/01/15 14:05:56;;;;;;;1.50;1.10;;;;;;;;;;20879467;28;20225;-82
2024/01/15 14:15:57;;;;;;;1.20;0.90;;;;;;;;;;20878636;28;20228;-81
2024/01/15 14:25:59;;;;;;;1.33;0.97;;;;;;;;;;20899841;28;20271;-80
2024/01/15 14:36:01;;;;;;;2.67;1.20;;;;;;;;;;20919877;28;20287;-81
2024/01/15 14:46:03;;;;;;;1.50;1.23;;;;;;;;;;20913188;28;20291;-81
2024/01/15 14:56:05;;;;;;;1.47;0.90;;;;;;;;;;20895389;28;20588;-82
2024/01/15 15:06:07;;;;;;;1.83;1.00;;;0.40;99.90;;;;;;20893156;28;20210;-82
2024/01/15 15:16:09;;;;;;;1.37;0.97;;;;;;;;;;20904064;28;20279;-84
2024/01/15 15:26:12;;;;;;;1.67;1.33;;;;;;;;;;20855625;28;20271;-82
2024/01/15 15:36:18;;;;;;;0.97;0.77;;;;;;;;;;20954210;28;20263;-82
2024/01/15 15:46:30;;;;;;;1.63;1.17;;;;;;;;;;20849742;28;20710;-82
2024/01/15 15:56:38;;;;;;;1.07;0.87;;;;;;;;;;20894307;28;20256;-82
2024/01/15 16:06:39;;;;;;;0.80;0.60;;;;;;;;;;20890497;28;20223;-79
2024/01/15 16:16:41;;;;;;;0.77;0.70;;;;;;;;;;20898441;28;20233;-80
2024/01/15 16:26:43;;;;;;;1.47;0.73;;;;;;;;;;20948813;28;20567;-82
2024/01/15 16:36:45;;;;;;;1.00;0.80;;;;;;;;;;20895563;28;20225;-80
2024/01/15 16:46:46;;;;;;;1.00;0.70;;;;;;;;;;20915505;28;20616;-81
2024/01/15 16:56:48;;;;;;;0.70;0.70;;;;;;;;;;20899344;28;20226;-80
2024/01/15 17:06:50;;;;;;;0.70;0.50;;;;;;;;;;20906710;28;20248;-80
2024/01/15 17:16:52;;;;;;;1.40;0.87;;;;;;;;;;20944954;28;20234;-82
2024/01/15 17:26:53;;;;;;;0.80;0.70;;;;;;;;;;20891702;28;20222;-81
2024/01/15 17:36:55;;;;;;;0.90;0.70;;;;;;;;;;20881527;28;20233;-81
2024/01/15 17:46:57;;;;;;;0.70;0.57;;;;;;;;;;20883849;28;20680;-82
2024/01/15 17:56:59;;;;;;;2.00;0.90;;;;;;;;;;20887035;28;20278;-82
2024/01/15 18:07:02;;;;;;;0.97;0.93;;;;;;;;;;20906356;28;20201;-87
2024/01/15 18:17:04;;;;;;;1.23;0.70;;;;;;;;;;20915866;28;20226;-81
2024/01/15 18:27:08;;;;;;;1.43;1.10;;;;;;;;;;20905650;28;20225;-83
2024/01/15 18:37:10;;;;;;;0.63;0.63;;;;;;;;;;20899169;28;20306;-81
2024/01/15 18:47:12;;;;;;;0.40;0.40;;;;;;;;;;20850844;28;20699;-81
2024/01/15 18:57:14;;;;;;;0.40;0.40;;;;;;;;;;20886093;28;20221;-84
2024/01/15 19:07:16;;;;;;;0.97;0.70;;;;;;;;;;20850667;28;20201;-82
2024/01/15 19:17:18;;;;;;;1.10;0.80;;;;;;;;;;20870950;28;20274;-83
2024/01/15 19:27:19;;;;;;;1.20;0.90;;;;;;;;;;20897111;28;20204;-82
2024/01/15 19:37:21;;;;;;;0.70;0.50;;;;;;;;;;20906927;28;20233;-82
2024/01/15 19:47:23;;;;;;;1.43;0.40;;;;;;;;;;20909626;28;20244;-84
2024/01/15 19:57:26;;;;;;;0.67;0.57;;;;;;;;;;20931717;28;20749;-82
2024/01/15 20:07:27;;;;;;;1.70;0.60;;;;;;;;;;20860004;28;20268;-82
2024/01/15 20:17:29;;;;;;;1.20;0.87;;;;;;;;;;20934862;28;20278;-80
2024/01/15 20:27:31;;;;;;;1.17;0.70;;;;;;;;;;20914597;28;20619;-83
2024/01/15 20:37:33;;;;;;;0.50;0.47;;;;;;;;;;20902612;28;20225;-83
2024/01/15 20:47:35;;;;;;;0.40;0.40;;;;;;;;;;20892068;28;20214;-83
2024/01/15 20:57:36;;;;;;;0.50;0.43;;;;;;;;;;20884079;28;20222;-84
2024/01/15 21:07:38;;;;;;;0.63;0.50;;;;;;;;;;20907674;28;20276;-83
2024/01/15 21:17:40;;;;;;;0.83;0.83;;;;;;;;;;20862195;28;20637;-83
2024/01/15 21:27:41;;;;;;;0.63;0.63;;;;;;;;;;20917226;28;20201;-84
2024/01/15 21:37:43;;;;;;;1.27;0.80;;;;;;;;;;20892037;28;20262;-83
2024/01/15 21:47:45;;;;;;;1.20;0.67;;;;;;;;;;20903710;28;20252;-82
2024/01/15 21:57:47;;;;;;;0.87;0.80;;;;;;;;;;20890289;28;20221;-84
2024/01/15 22:07:49;;;;;;;2.20;1.00;;;;;;;;;;20914623;28;20330;-83
2024/01/15 22:17:51;;;;;;;0.40;0.40;;;;;;;;;;20872453;28;20291;-87
2024/01/15 22:27:53;;;;;;;0.67;0.67;;;;;;;;;;20910183;28;20710;-86
2024/01/15 22:37:55;;;;;;;0.60;0.60;;;;;;;;;;20909954;28;20217;-86
2024/01/15 22:47:57;;;;;;;2.17;1.70;;;;;;;;;;20900665;28;20736;-86
2024/01/15 22:57:58;;;;;;;0.77;0.60;;;;;;;;;;20884239;28;20279;-87
2024/01/15 23:08:00;;;;;;;0.80;0.70;;;;;;;;;;20880240;28;20670;-84
2024/01/15 23:18:02;;;;;;;0.77;0.70;;;;;;;;;;20910064;28;20284;-85
2024/01/15 23:28:04;;;;;;;1.00;0.80;;;;;;;;;;20878624;28;20252;-83
2024/01/15 23:38:06;;;;;;;2.43;1.27;;;;;;;;;;20939128;28;20279;-82
2024/01/15 23:48:07;;;;;;;2.63;1.47;;;;;;;;;;20878030;28;20221;-87
2024/01/15 23:58:09;;;;;;;1.47;1.23;;;;;;;;;;20851283;28;20271;-84
